Time,TemperatureF,DewpointF,PressureIn,WindDirection,WindDirectionDegrees,WindSpeedMPH,WindSpeedGustMPH,Humidity,HourlyPrecipIn,Conditions,Clouds,dailyrainin,SoftwareType,DateUTC
2013-11-05 00:02:00,31.1,29.8,30.26,SE,135,0.0,2.0,95,0.00,,,0.00,Weather View 32 v70,2013-11-05 06:02:00,
2013-11-05 00:07:00,31.1,29.8,30.26,SE,135,1.0,2.0,95,0.00,,,0.00,Weather View 32 v70,2013-11-05 06:07:00,
2013-11-05 00:12:00,31.1,29.8,30.26,ENE,67,1.0,2.0,95,0.00,,,0.00,Weather View 32 v70,2013-11-05 06:12:00,
2013-11-05 00:17:00,31.1,29.8,30.26,ENE,67,1.0,2.0,95,0.00,,,0.00,Weather View 32 v70,2013-11-05 06:17:00,
2013-11-05 00:22:00,30.8,29.3,30.26,ENE,67,1.0,2.0,94,0.00,,,0.00,Weather View 32 v70,2013-11-05 06:22:00,
2013-11-05 00:27:00,30.4,28.9,30.26,ENE,67,1.0,2.0,94,0.00,,,0.00,Weather View 32 v70,2013-11-05 06:27:00,
2013-11-05 00:32:00,30.1,28.6,30.26,ENE,67,0.0,2.0,94,0.00,,,0.00,Weather View 32 v70,2013-11-05 06:32:00,
2013-11-05 00:37:00,29.9,28.4,30.26,ENE,67,0.0,2.0,94,0.00,,,0.00,Weather View 32 v70,2013-11-05 06:37:00,
2013-11-05 00:42:00,29.8,28.3,30.26,ENE,67,0.0,2.0,94,0.00,,,0.00,Weather View 32 v70,2013-11-05 06:42:00,
2013-11-05 00:47:00,29.8,28.3,30.26,ENE,67,0.0,2.0,94,0.00,,,0.00,Weather View 32 v70,2013-11-05 06:47:00,
2013-11-05 00:52:00,30.3,28.8,30.26,ENE,67,0.0,2.0,94,0.00,,,0.00,Weather View 32 v70,2013-11-05 06:52:00,
2013-11-05 00:57:00,30.7,29.2,30.26,ENE,67,0.0,2.0,94,0.00,,,0.00,Weather View 32 v70,2013-11-05 06:57:00,
2013-11-05 01:02:00,30.7,29.2,30.26,ENE,67,1.0,2.0,94,0.00,,,0.00,Weather View 32 v70,2013-11-05 07:02:00,
2013-11-05 01:07:00,30.3,28.8,30.26,ENE,67,1.0,2.0,94,0.00,,,0.00,Weather View 32 v70,2013-11-05 07:07:00,
2013-11-05 01:12:00,30.0,28.5,30.26,ENE,67,1.0,2.0,94,0.00,,,0.00,Weather View 32 v70,2013-11-05 07:12:00,
2013-11-05 01:17:00,29.9,28.4,30.26,ENE,67,2.0,2.0,94,0.00,,,0.00,Weather View 32 v70,2013-11-05 07:17:00,
2013-11-05 01:22:00,29.6,28.1,30.26,East,90,2.0,2.0,94,0.00,,,0.00,Weather View 32 v70,2013-11-05 07:22:00,
2013-11-05 01:27:00,29.3,27.8,30.26,East,90,2.0,2.0,94,0.00,,,0.00,Weather View 32 v70,2013-11-05 07:27:00,
2013-11-05 01:32:00,29.5,28.0,30.26,East,90,0.0,2.0,94,0.00,,,0.00,Weather View 32 v70,2013-11-05 07:32:00,
2013-11-05 01:37:00,29.5,28.0,30.26,East,90,0.0,2.0,94,0.00,,,0.00,Weather View 32 v70,2013-11-05 07:37:00,
2013-11-05 01:42:00,29.5,28.0,30.26,East,90,0.0,2.0,94,0.00,,,0.00,Weather View 32 v70,2013-11-05 07:42:00,
2013-11-05 01:47:00,29.7,28.2,30.26,East,90,0.0,2.0,94,0.00,,,0.00,Weather View 32 v70,2013-11-05 07:47:00,
2013-11-05 01:52:00,29.8,28.3,30.26,East,90,0.0,2.0,94,0.00,,,0.00,Weather View 32 v70,2013-11-05 07:52:00,
2013-11-05 01:57:00,29.8,28.3,30.27,East,90,0.0,2.0,94,0.00,,,0.00,Weather View 32 v70,2013-11-05 07:57:00,
2013-11-05 02:02:00,29.9,28.4,30.27,East,90,0.0,2.0,94,0.00,,,0.00,Weather View 32 v70,2013-11-05 08:02:00,
2013-11-05 02:07:00,29.7,28.2,30.27,East,90,0.0,2.0,94,0.00,,,0.00,Weather View 32 v70,2013-11-05 08:07:00,
2013-11-05 02:12:00,29.4,27.9,30.27,East,90,0.0,2.0,94,0.00,,,0.00,Weather View 32 v70,2013-11-05 08:12:00,
2013-11-05 02:17:00,29.2,27.7,30.27,East,90,0.0,2.0,94,0.00,,,0.00,Weather View 32 v70,2013-11-05 08:17:00,
2013-11-05 02:22:00,29.2,27.7,30.27,East,90,0.0,2.0,94,0.00,,,0.00,Weather View 32 v70,2013-11-05 08:22:00,
2013-11-05 02:27:00,29.3,27.8,30.27,ENE,67,0.0,2.0,94,0.00,,,0.00,Weather View 32 v70,2013-11-05 08:27:00,
2013-11-05 02:32:00,29.2,27.7,30.27,ENE,67,0.0,2.0,94,0.00,,,0.00,Weather View 32 v70,2013-11-05 08:32:00,
2013-11-05 02:37:00,29.3,27.8,30.27,ENE,67,1.0,2.0,94,0.00,,,0.00,Weather View 32 v70,2013-11-05 08:37:00,
2013-11-05 02:42:00,29.3,27.8,30.27,ENE,67,0.0,2.0,94,0.00,,,0.00,Weather View 32 v70,2013-11-05 08:42:00,
2013-11-05 02:47:00,29.2,27.7,30.27,ENE,67,1.0,2.0,94,0.00,,,0.00,Weather View 32 v70,2013-11-05 08:47:00,
2013-11-05 02:52:00,28.9,27.4,30.26,NE,45,2.0,2.0,94,0.00,,,0.00,Weather View 32 v70,2013-11-05 08:52:00,
2013-11-05 02:57:00,28.7,27.2,30.26,NE,45,1.0,2.0,94,0.00,,,0.00,Weather View 32 v70,2013-11-05 08:57:00,
2013-11-05 03:02:00,28.4,26.9,30.26,NE,45,1.0,2.0,94,0.00,,,0.00,Weather View 32 v70,2013-11-05 09:02:00,
2013-11-05 03:07:00,28.2,26.7,30.26,NE,45,2.0,2.0,94,0.00,,,0.00,Weather View 32 v70,2013-11-05 09:07:00,
2013-11-05 03:12:00,28.1,26.6,30.26,NE,45,0.0,2.0,94,0.00,,,0.00,Weather View 32 v70,2013-11-05 09:12:00,
2013-11-05 03:17:00,27.9,26.4,30.26,NE,45,0.0,2.0,94,0.00,,,0.00,Weather View 32 v70,2013-11-05 09:17:00,
2013-11-05 03:22:00,27.7,26.2,30.26,NE,45,1.0,2.0,94,0.00,,,0.00,Weather View 32 v70,2013-11-05 09:22:00,
2013-11-05 03:27:00,27.8,26.3,30.26,NE,45,0.0,2.0,94,0.00,,,0.00,Weather View 32 v70,2013-11-05 09:27:00,
2013-11-05 03:32:00,27.9,26.4,30.26,NE,45,0.0,2.0,94,0.00,,,0.00,Weather View 32 v70,2013-11-05 09:32:00,
2013-11-05 03:37:00,28.4,26.9,30.26,NE,45,0.0,2.0,94,0.00,,,0.00,Weather View 32 v70,2013-11-05 09:37:00,
2013-11-05 03:42:00,28.7,27.2,30.26,NE,45,0.0,2.0,94,0.00,,,0.00,Weather View 32 v70,2013-11-05 09:42:00,
2013-11-05 03:47:00,28.9,27.4,30.26,WNW,292,1.0,2.0,94,0.00,,,0.00,Weather View 32 v70,2013-11-05 09:47:00,
2013-11-05 03:52:00,29.0,27.5,30.26,WNW,292,1.0,2.0,94,0.00,,,0.00,Weather View 32 v70,2013-11-05 09:52:00,
2013-11-05 03:57:00,28.9,27.4,30.26,WNW,292,0.0,2.0,94,0.00,,,0.00,Weather View 32 v70,2013-11-05 09:57:00,
2013-11-05 04:02:00,28.8,27.3,30.25,WNW,292,0.0,2.0,94,0.00,,,0.00,Weather View 32 v70,2013-11-05 10:02:00,
2013-11-05 04:07:00,28.7,27.2,30.25,WNW,292,0.0,2.0,94,0.00,,,0.00,Weather View 32 v70,2013-11-05 10:07:00,
2013-11-05 04:12:00,28.8,27.3,30.25,WNW,292,1.0,2.0,94,0.00,,,0.00,Weather View 32 v70,2013-11-05 10:12:00,
2013-11-05 04:17:00,28.9,27.4,30.25,WNW,292,2.0,2.0,94,0.00,,,0.00,Weather View 32 v70,2013-11-05 10:17:00,
2013-11-05 04:22:00,28.8,27.3,30.25,WNW,292,2.0,2.0,94,0.00,,,0.00,Weather View 32 v70,2013-11-05 10:22:00,
2013-11-05 04:27:00,28.7,27.2,30.25,WNW,292,0.0,2.0,94,0.00,,,0.00,Weather View 32 v70,2013-11-05 10:27:00,
2013-11-05 04:32:00,28.8,27.3,30.25,WNW,292,1.0,2.0,94,0.00,,,0.00,Weather View 32 v70,2013-11-05 10:32:00,
2013-11-05 04:37:00,28.9,27.4,30.25,West,270,2.0,2.0,94,0.00,,,0.00,Weather View 32 v70,2013-11-05 10:37:00,
2013-11-05 04:42:00,28.7,27.2,30.26,West,270,1.0,2.0,94,0.00,,,0.00,Weather View 32 v70,2013-11-05 10:42:00,
2013-11-05 04:47:00,28.5,27.0,30.25,WSW,247,0.0,2.0,94,0.00,,,0.00,Weather View 32 v70,2013-11-05 10:47:00,
2013-11-05 04:52:00,28.3,26.8,30.25,WSW,247,1.0,2.0,94,0.00,,,0.00,Weather View 32 v70,2013-11-05 10:52:00,
2013-11-05 04:57:00,28.2,26.7,30.26,WSW,247,1.0,2.0,94,0.00,,,0.00,Weather View 32 v70,2013-11-05 10:57:00,
2013-11-05 05:02:00,28.2,26.7,30.25,WSW,247,0.0,2.0,94,0.00,,,0.00,Weather View 32 v70,2013-11-05 11:02:00,
2013-11-05 05:07:00,28.1,26.6,30.25,WSW,247,2.0,2.0,94,0.00,,,0.00,Weather View 32 v70,2013-11-05 11:07:00,
2013-11-05 05:12:00,27.9,26.4,30.25,West,270,1.0,2.0,94,0.00,,,0.00,Weather View 32 v70,2013-11-05 11:12:00,
2013-11-05 05:17:00,27.6,26.1,30.25,West,270,0.0,2.0,94,0.00,,,0.00,Weather View 32 v70,2013-11-05 11:17:00,
2013-11-05 05:22:00,27.5,26.0,30.24,West,270,2.0,2.0,94,0.00,,,0.00,Weather View 32 v70,2013-11-05 11:22:00,
2013-11-05 05:27:00,27.5,26.0,30.25,West,270,0.0,2.0,94,0.00,,,0.00,Weather View 32 v70,2013-11-05 11:27:00,
2013-11-05 05:32:00,27.7,26.2,30.25,West,270,1.0,2.0,94,0.00,,,0.00,Weather View 32 v70,2013-11-05 11:32:00,
2013-11-05 05:37:00,27.9,26.4,30.25,West,270,1.0,2.0,94,0.00,,,0.00,Weather View 32 v70,2013-11-05 11:37:00,
2013-11-05 05:42:00,27.9,26.4,30.25,West,270,2.0,2.0,94,0.00,,,0.00,Weather View 32 v70,2013-11-05 11:42:00,
2013-11-05 05:47:00,28.2,26.7,30.25,West,270,1.0,2.0,94,0.00,,,0.00,Weather View 32 v70,2013-11-05 11:47:00,
2013-11-05 05:52:00,28.3,26.8,30.25,West,270,2.0,2.0,94,0.00,,,0.00,Weather View 32 v70,2013-11-05 11:52:00,
2013-11-05 05:57:00,28.3,26.8,30.24,West,270,0.0,2.0,94,0.00,,,0.00,Weather View 32 v70,2013-11-05 11:57:00,
2013-11-05 06:02:00,28.3,26.8,30.24,West,270,0.0,2.0,94,0.00,,,0.00,Weather View 32 v70,2013-11-05 12:02:00,
2013-11-05 06:07:00,28.3,26.8,30.23,West,270,0.0,2.0,94,0.00,,,0.00,Weather View 32 v70,2013-11-05 12:07:00,
2013-11-05 06:12:00,28.4,26.9,30.23,West,270,0.0,2.0,94,0.00,,,0.00,Weather View 32 v70,2013-11-05 12:12:00,
2013-11-05 06:17:00,28.8,27.3,30.23,NW,315,1.0,2.0,94,0.00,,,0.00,Weather View 32 v70,2013-11-05 12:17:00,
2013-11-05 06:22:00,28.9,27.4,30.22,NNW,337,0.0,2.0,94,0.00,,,0.00,Weather View 32 v70,2013-11-05 12:22:00,
2013-11-05 06:27:00,29.2,27.7,30.22,NNW,337,2.0,2.0,94,0.00,,,0.00,Weather View 32 v70,2013-11-05 12:27:00,
2013-11-05 06:32:00,29.7,28.2,30.22,NNW,337,2.0,3.0,94,0.00,,,0.00,Weather View 32 v70,2013-11-05 12:32:00,
2013-11-05 06:38:00,29.9,28.4,30.22,WSW,247,1.0,3.0,94,0.00,,,0.00,Weather View 32 v70,2013-11-05 12:38:00,
2013-11-05 06:43:00,29.8,28.3,30.21,NW,315,3.0,4.0,94,0.00,,,0.00,Weather View 32 v70,2013-11-05 12:43:00,
2013-11-05 06:48:00,29.9,28.4,30.21,NW,315,1.0,4.0,94,0.00,,,0.00,Weather View 32 v70,2013-11-05 12:48:00,
2013-11-05 06:53:00,29.9,28.4,30.21,West,270,2.0,4.0,94,0.00,,,0.00,Weather View 32 v70,2013-11-05 12:53:00,
2013-11-05 06:58:00,29.6,28.1,30.21,West,270,2.0,4.0,94,0.00,,,0.00,Weather View 32 v70,2013-11-05 12:58:00,
2013-11-05 07:03:00,29.3,27.8,30.22,SW,225,2.0,4.0,94,0.00,,,0.00,Weather View 32 v70,2013-11-05 13:03:00,
2013-11-05 07:08:00,28.8,27.3,30.22,SW,225,1.0,4.0,94,0.00,,,0.00,Weather View 32 v70,2013-11-05 13:08:00,
2013-11-05 07:13:00,28.3,26.8,30.22,SW,225,1.0,4.0,94,0.00,,,0.00,Weather View 32 v70,2013-11-05 13:13:00,
2013-11-05 07:18:00,28.2,26.7,30.22,SSW,202,1.0,4.0,94,0.00,,,0.00,Weather View 32 v70,2013-11-05 13:18:00,
2013-11-05 07:23:00,28.4,26.9,30.22,SW,225,1.0,4.0,94,0.00,,,0.00,Weather View 32 v70,2013-11-05 13:23:00,
2013-11-05 07:28:00,28.6,27.1,30.22,SW,225,0.0,4.0,94,0.00,,,0.00,Weather View 32 v70,2013-11-05 13:28:00,
2013-11-05 07:33:00,28.6,27.1,30.23,WSW,247,2.0,4.0,94,0.00,,,0.00,Weather View 32 v70,2013-11-05 13:33:00,
2013-11-05 07:38:00,28.5,27.0,30.23,WSW,247,0.0,4.0,94,0.00,,,0.00,Weather View 32 v70,2013-11-05 13:38:00,
2013-11-05 07:43:00,28.8,27.3,30.23,WSW,247,0.0,4.0,94,0.00,,,0.00,Weather View 32 v70,2013-11-05 13:43:00,
2013-11-05 07:48:00,29.0,27.5,30.24,WSW,247,1.0,2.0,94,0.00,,,0.00,Weather View 32 v70,2013-11-05 13:48:00,
2013-11-05 07:53:00,29.0,27.5,30.24,WSW,247,2.0,2.0,94,0.00,,,0.00,Weather View 32 v70,2013-11-05 13:53:00,
2013-11-05 07:58:00,29.1,27.6,30.24,WSW,247,0.0,2.0,94,0.00,,,0.00,Weather View 32 v70,2013-11-05 13:58:00,
2013-11-05 08:03:00,29.3,27.8,30.24,WSW,247,0.0,2.0,94,0.00,,,0.00,Weather View 32 v70,2013-11-05 14:03:00,
2013-11-05 08:08:00,29.7,28.2,30.24,WSW,247,0.0,2.0,94,0.00,,,0.00,Weather View 32 v70,2013-11-05 14:08:00,
2013-11-05 08:13:00,30.3,28.8,30.24,WNW,292,1.0,2.0,94,0.00,,,0.00,Weather View 32 v70,2013-11-05 14:13:00,
2013-11-05 08:18:00,31.2,29.9,30.24,WNW,292,2.0,2.0,95,0.00,,,0.00,Weather View 32 v70,2013-11-05 14:18:00,
2013-11-05 08:23:00,32.0,30.7,30.24,WNW,292,2.0,2.0,95,0.00,,,0.00,Weather View 32 v70,2013-11-05 14:23:00,
2013-11-05 08:28:00,32.5,31.2,30.24,WNW,292,1.0,2.0,95,0.00,,,0.00,Weather View 32 v70,2013-11-05 14:28:00,
2013-11-05 08:33:00,32.7,31.4,30.24,WNW,292,2.0,2.0,95,0.00,,,0.00,Weather View 32 v70,2013-11-05 14:33:00,
2013-11-05 08:38:00,33.1,31.8,30.24,WNW,292,0.0,2.0,95,0.00,,,0.00,Weather View 32 v70,2013-11-05 14:38:00,
2013-11-05 08:43:00,33.6,32.3,30.24,WNW,292,0.0,2.0,95,0.00,,,0.00,Weather View 32 v70,2013-11-05 14:43:00,
2013-11-05 08:48:00,33.7,32.4,30.24,WNW,292,1.0,2.0,95,0.00,,,0.00,Weather View 32 v70,2013-11-05 14:48:00,
2013-11-05 08:53:00,34.1,32.0,30.24,WNW,292,1.0,2.0,92,0.00,,,0.00,Weather View 32 v70,2013-11-05 14:53:00,
2013-11-05 08:58:00,34.5,32.1,30.24,North,360,1.0,2.0,91,0.00,,,0.00,Weather View 32 v70,2013-11-05 14:58:00,
2013-11-05 09:03:00,34.9,32.5,30.24,North,360,1.0,2.0,91,0.00,,,0.00,Weather View 32 v70,2013-11-05 15:03:00,
2013-11-05 09:08:00,35.3,32.9,30.24,NNW,337,2.0,2.0,91,0.00,,,0.00,Weather View 32 v70,2013-11-05 15:08:00,
2013-11-05 09:13:00,35.7,32.5,30.24,NW,315,2.0,4.0,88,0.00,,,0.00,Weather View 32 v70,2013-11-05 15:13:00,
2013-11-05 09:18:00,35.9,32.1,30.23,NW,315,1.0,4.0,86,0.00,,,0.00,Weather View 32 v70,2013-11-05 15:18:00,
2013-11-05 09:23:00,36.1,32.0,30.24,NW,315,2.0,4.0,85,0.00,,,0.00,Weather View 32 v70,2013-11-05 15:23:00,
2013-11-05 09:28:00,36.4,32.9,30.24,NW,315,3.0,4.0,87,0.00,,,0.00,Weather View 32 v70,2013-11-05 15:28:00,
2013-11-05 09:33:00,36.7,32.6,30.24,NW,315,2.0,5.0,85,0.00,,,0.00,Weather View 32 v70,2013-11-05 15:33:00,
2013-11-05 09:38:00,37.1,33.0,30.24,West,270,3.0,6.0,85,0.00,,,0.00,Weather View 32 v70,2013-11-05 15:38:00,
2013-11-05 09:44:00,37.4,32.7,30.26,West,270,2.0,6.0,83,0.00,,,0.00,Weather View 32 v70,2013-11-05 15:44:00,
2013-11-05 09:49:00,37.3,33.2,30.26,NW,315,3.0,6.0,85,0.00,,,0.00,Weather View 32 v70,2013-11-05 15:49:00,
2013-11-05 09:54:00,37.3,33.2,30.27,West,270,5.0,7.0,85,0.00,,,0.00,Weather View 32 v70,2013-11-05 15:54:00,
2013-11-05 09:59:00,37.4,33.3,30.28,NW,315,4.0,7.0,85,0.00,,,0.00,Weather View 32 v70,2013-11-05 15:59:00,
2013-11-05 10:04:00,37.3,33.2,30.27,NW,315,7.0,9.0,85,0.00,,,0.00,Weather View 32 v70,2013-11-05 16:04:00,
2013-11-05 10:09:00,36.8,33.9,30.27,NW,315,6.0,9.0,89,0.00,,,0.00,Weather View 32 v70,2013-11-05 16:09:00,
2013-11-05 10:14:00,36.4,33.5,30.27,NW,315,6.0,9.0,89,0.00,,,0.00,Weather View 32 v70,2013-11-05 16:14:00,
2013-11-05 10:19:00,36.1,33.7,30.26,NW,315,8.0,9.0,91,0.00,,,0.00,Weather View 32 v70,2013-11-05 16:19:00,
2013-11-05 10:24:00,35.8,34.0,30.26,NW,315,6.0,9.0,93,0.01,,,0.01,Weather View 32 v70,2013-11-05 16:24:00,
2013-11-05 10:29:00,35.5,33.9,30.26,WNW,292,6.0,9.0,94,0.01,,,0.01,Weather View 32 v70,2013-11-05 16:29:00,
2013-11-05 10:34:00,35.2,33.9,30.26,WNW,292,6.0,9.0,95,0.02,,,0.02,Weather View 32 v70,2013-11-05 16:34:00,
2013-11-05 10:39:00,35.2,33.9,30.27,NNW,337,2.0,9.0,95,0.02,,,0.02,Weather View 32 v70,2013-11-05 16:39:00,
2013-11-05 10:44:00,35.1,33.8,30.26,NW,315,4.0,9.0,95,0.03,,,0.03,Weather View 32 v70,2013-11-05 16:44:00,
2013-11-05 10:49:00,34.9,33.6,30.26,NW,315,4.0,9.0,95,0.04,,,0.04,Weather View 32 v70,2013-11-05 16:49:00,
2013-11-05 10:54:00,34.8,33.5,30.25,NNE,22,2.0,9.0,95,0.04,,,0.04,Weather View 32 v70,2013-11-05 16:54:00,
2013-11-05 10:59:00,34.9,33.6,30.25,NNE,22,2.0,9.0,95,0.05,,,0.05,Weather View 32 v70,2013-11-05 16:59:00,
2013-11-05 11:04:00,34.9,33.6,30.24,NE,45,2.0,9.0,95,0.06,,,0.06,Weather View 32 v70,2013-11-05 17:04:00,
2013-11-05 11:09:00,35.0,33.7,30.24,North,360,0.0,9.0,95,0.06,,,0.06,Weather View 32 v70,2013-11-05 17:09:00,
2013-11-05 11:14:00,35.2,33.9,30.24,NE,45,0.0,9.0,95,0.06,,,0.06,Weather View 32 v70,2013-11-05 17:14:00,
2013-11-05 11:19:00,35.4,34.1,30.23,NE,45,0.0,9.0,95,0.07,,,0.07,Weather View 32 v70,2013-11-05 17:19:00,
2013-11-05 11:24:00,35.7,34.4,30.23,NE,45,2.0,9.0,95,0.06,,,0.07,Weather View 32 v70,2013-11-05 17:24:00,
2013-11-05 11:29:00,36.1,34.8,30.22,NE,45,5.0,9.0,95,0.07,,,0.08,Weather View 32 v70,2013-11-05 17:29:00,
2013-11-05 11:34:00,36.3,35.0,30.22,NE,45,3.0,9.0,95,0.06,,,0.08,Weather View 32 v70,2013-11-05 17:34:00,
2013-11-05 11:39:00,36.5,35.2,30.20,NE,45,2.0,7.0,95,0.06,,,0.08,Weather View 32 v70,2013-11-05 17:39:00,
2013-11-05 11:44:00,36.6,35.3,30.20,NE,45,2.0,7.0,95,0.05,,,0.08,Weather View 32 v70,2013-11-05 17:44:00,
2013-11-05 11:49:00,36.6,35.3,30.20,NE,45,5.0,7.0,95,0.05,,,0.09,Weather View 32 v70,2013-11-05 17:49:00,
2013-11-05 11:54:00,36.6,35.3,30.19,NE,45,4.0,11.0,95,0.05,,,0.09,Weather View 32 v70,2013-11-05 17:54:00,
2013-11-05 11:59:00,36.5,35.2,30.18,North,360,2.0,11.0,95,0.05,,,0.10,Weather View 32 v70,2013-11-05 17:59:00,
2013-11-05 12:04:00,36.4,35.1,30.18,NE,45,5.0,11.0,95,0.04,,,0.10,Weather View 32 v70,2013-11-05 18:04:00,
2013-11-05 12:09:00,36.2,34.9,30.17,NE,45,2.0,11.0,95,0.05,,,0.11,Weather View 32 v70,2013-11-05 18:09:00,
2013-11-05 12:14:00,36.1,34.8,30.17,NE,45,2.0,11.0,95,0.05,,,0.11,Weather View 32 v70,2013-11-05 18:14:00,
2013-11-05 12:19:00,35.9,34.6,30.17,NNE,22,5.0,11.0,95,0.05,,,0.12,Weather View 32 v70,2013-11-05 18:19:00,
2013-11-05 12:24:00,35.7,34.4,30.17,NE,45,6.0,11.0,95,0.05,,,0.12,Weather View 32 v70,2013-11-05 18:24:00,
2013-11-05 12:29:00,35.7,34.4,30.16,NE,45,2.0,11.0,95,0.05,,,0.13,Weather View 32 v70,2013-11-05 18:29:00,
2013-11-05 12:34:00,35.5,34.2,30.15,NNE,22,6.0,11.0,95,0.05,,,0.13,Weather View 32 v70,2013-11-05 18:34:00,
2013-11-05 12:40:00,35.3,34.0,30.15,NE,45,8.0,11.0,95,0.06,,,0.14,Weather View 32 v70,2013-11-05 18:40:00,
2013-11-05 12:45:00,35.0,33.7,30.14,NE,45,3.0,11.0,95,0.07,,,0.15,Weather View 32 v70,2013-11-05 18:45:00,
2013-11-05 12:50:00,34.7,33.4,30.14,NE,45,2.0,11.0,95,0.06,,,0.15,Weather View 32 v70,2013-11-05 18:50:00,
2013-11-05 12:55:00,34.4,33.1,30.13,NNE,22,2.0,14.0,95,0.07,,,0.16,Weather View 32 v70,2013-11-05 18:55:00,
2013-11-05 13:00:00,34.2,32.9,30.13,NE,45,3.0,14.0,95,0.07,,,0.17,Weather View 32 v70,2013-11-05 19:00:00,
2013-11-05 13:05:00,33.9,32.6,30.12,NNE,22,2.0,14.0,95,0.07,,,0.17,Weather View 32 v70,2013-11-05 19:05:00,
2013-11-05 13:10:00,33.9,32.6,30.13,North,360,1.0,14.0,95,0.07,,,0.18,Weather View 32 v70,2013-11-05 19:10:00,
2013-11-05 13:15:00,33.8,32.5,30.12,NE,45,1.0,14.0,95,0.07,,,0.18,Weather View 32 v70,2013-11-05 19:15:00,
2013-11-05 13:20:00,33.7,32.4,30.12,NE,45,4.0,14.0,95,0.06,,,0.18,Weather View 32 v70,2013-11-05 19:20:00,
2013-11-05 13:25:00,33.6,32.3,30.12,NNE,22,1.0,14.0,95,0.07,,,0.19,Weather View 32 v70,2013-11-05 19:25:00,
2013-11-05 13:30:00,33.6,32.3,30.12,NNE,22,2.0,14.0,95,0.06,,,0.19,Weather View 32 v70,2013-11-05 19:30:00,
2013-11-05 13:35:00,33.5,32.2,30.12,NNE,22,2.0,14.0,95,0.06,,,0.19,Weather View 32 v70,2013-11-05 19:35:00,
2013-11-05 13:40:00,33.5,32.2,30.12,North,360,2.0,14.0,95,0.05,,,0.20,Weather View 32 v70,2013-11-05 19:40:00,
2013-11-05 13:45:00,33.5,32.2,30.12,North,360,4.0,14.0,95,0.05,,,0.20,Weather View 32 v70,2013-11-05 19:45:00,
2013-11-05 13:50:00,33.4,32.1,30.12,North,360,3.0,14.0,95,0.05,,,0.20,Weather View 32 v70,2013-11-05 19:50:00,
2013-11-05 13:55:00,33.3,32.0,30.12,NW,315,4.0,8.0,95,0.04,,,0.20,Weather View 32 v70,2013-11-05 19:55:00,
2013-11-05 14:00:00,33.3,32.0,30.12,North,360,4.0,9.0,95,0.04,,,0.21,Weather View 32 v70,2013-11-05 20:00:00,
2013-11-05 14:05:00,33.1,31.8,30.11,NNW,337,2.0,11.0,95,0.04,,,0.21,Weather View 32 v70,2013-11-05 20:05:00,
2013-11-05 14:10:00,32.9,31.6,30.11,North,360,4.0,11.0,95,0.03,,,0.21,Weather View 32 v70,2013-11-05 20:10:00,
2013-11-05 14:15:00,32.7,31.4,30.11,NNE,22,2.0,11.0,95,0.04,,,0.22,Weather View 32 v70,2013-11-05 20:15:00,
2013-11-05 14:20:00,32.5,31.2,30.11,NW,315,6.0,11.0,95,0.04,,,0.22,Weather View 32 v70,2013-11-05 20:20:00,
2013-11-05 17:00:00,31.8,30.5,30.09,NW,315,4.0,17.0,95,0.01,,,0.24,Weather View 32 v70,2013-11-05 23:00:00,
2013-11-05 17:02:00,31.9,30.6,30.09,North,360,7.0,17.0,95,0.01,,,0.24,Weather View 32 v70,2013-11-05 23:02:00,
2013-11-05 17:38:00,31.5,30.2,30.09,North,360,2.0,12.0,95,0.01,,,0.24,Weather View 32 v70,2013-11-05 23:38:00,
2013-11-05 17:43:00,31.5,30.2,30.09,NNW,337,7.0,12.0,95,0.01,,,0.24,Weather View 32 v70,2013-11-05 23:43:00,
2013-11-05 17:48:00,31.5,30.2,30.09,NW,315,6.0,14.0,95,0.00,,,0.24,Weather View 32 v70,2013-11-05 23:48:00,
2013-11-05 17:53:00,31.6,30.3,30.10,NW,315,2.0,14.0,95,0.00,,,0.24,Weather View 32 v70,2013-11-05 23:53:00,
2013-11-05 17:58:00,31.6,30.3,30.10,North,360,6.0,14.0,95,0.00,,,0.24,Weather View 32 v70,2013-11-05 23:58:00,
2013-11-05 18:03:00,31.6,30.3,30.10,NW,315,7.0,14.0,95,0.00,,,0.24,Weather View 32 v70,2013-11-06 00:03:00,
2013-11-05 18:08:00,31.6,30.3,30.10,NW,315,4.0,14.0,95,0.00,,,0.24,Weather View 32 v70,2013-11-06 00:08:00,
2013-11-05 18:13:00,31.5,30.2,30.10,NW,315,3.0,14.0,95,0.00,,,0.24,Weather View 32 v70,2013-11-06 00:13:00,
2013-11-05 18:18:00,31.5,30.2,30.10,NNE,22,8.0,16.0,95,0.00,,,0.24,Weather View 32 v70,2013-11-06 00:18:00,
2013-11-05 18:23:00,31.5,30.2,30.10,North,360,5.0,16.0,95,0.00,,,0.24,Weather View 32 v70,2013-11-06 00:23:00,
2013-11-05 18:28:00,31.6,30.3,30.11,NNE,22,11.0,16.0,95,0.00,,,0.24,Weather View 32 v70,2013-11-06 00:28:00,
2013-11-05 18:33:00,31.6,30.3,30.11,NW,315,8.0,16.0,95,0.00,,,0.24,Weather View 32 v70,2013-11-06 00:33:00,
2013-11-05 18:38:00,31.8,30.5,30.12,NW,315,8.0,16.0,95,0.00,,,0.24,Weather View 32 v70,2013-11-06 00:38:00,
2013-11-05 18:43:00,31.9,30.6,30.12,North,360,2.0,16.0,95,0.00,,,0.24,Weather View 32 v70,2013-11-06 00:43:00,
2013-11-05 18:48:00,31.9,30.6,30.12,North,360,2.0,16.0,95,0.00,,,0.24,Weather View 32 v70,2013-11-06 00:48:00,
2013-11-05 18:53:00,31.9,30.6,30.12,NW,315,3.0,16.0,95,0.00,,,0.24,Weather View 32 v70,2013-11-06 00:53:00,
2013-11-05 18:58:00,31.9,30.6,30.12,NW,315,2.0,16.0,95,0.00,,,0.24,Weather View 32 v70,2013-11-06 00:58:00,
2013-11-05 19:03:00,31.9,30.6,30.12,NW,315,3.0,16.0,95,0.00,,,0.24,Weather View 32 v70,2013-11-06 01:03:00,
2013-11-05 19:08:00,31.9,30.6,30.12,NW,315,4.0,16.0,95,0.00,,,0.24,Weather View 32 v70,2013-11-06 01:08:00,
2013-11-05 19:13:00,31.9,30.6,30.13,NW,315,5.0,16.0,95,0.00,,,0.24,Weather View 32 v70,2013-11-06 01:13:00,
2013-11-05 19:18:00,31.9,30.6,30.14,NW,315,11.0,14.0,95,0.01,,,0.25,Weather View 32 v70,2013-11-06 01:18:00,
2013-11-05 19:23:00,31.9,30.6,30.13,NW,315,10.0,14.0,95,0.01,,,0.25,Weather View 32 v70,2013-11-06 01:23:00,
2013-11-05 19:28:00,31.9,30.6,30.13,WNW,292,5.0,15.0,95,0.01,,,0.25,Weather View 32 v70,2013-11-06 01:28:00,
2013-11-05 19:33:00,31.9,30.6,30.13,North,360,5.0,15.0,95,0.01,,,0.25,Weather View 32 v70,2013-11-06 01:33:00,
2013-11-05 19:38:00,31.8,30.5,30.12,NW,315,6.0,15.0,95,0.01,,,0.25,Weather View 32 v70,2013-11-06 01:38:00,
2013-11-05 19:43:00,31.8,30.5,30.12,NW,315,9.0,15.0,95,0.01,,,0.25,Weather View 32 v70,2013-11-06 01:43:00,
2013-11-05 19:48:00,31.8,30.5,30.13,NW,315,7.0,15.0,95,0.01,,,0.25,Weather View 32 v70,2013-11-06 01:48:00,
2013-11-05 19:53:00,31.8,30.5,30.13,NW,315,9.0,15.0,95,0.02,,,0.26,Weather View 32 v70,2013-11-06 01:53:00,
2013-11-05 19:58:00,31.8,30.5,30.13,NW,315,9.0,15.0,95,0.02,,,0.26,Weather View 32 v70,2013-11-06 01:58:00,
2013-11-05 20:03:00,31.8,30.5,30.13,NW,315,8.0,17.0,95,0.02,,,0.26,Weather View 32 v70,2013-11-06 02:03:00,
2013-11-05 20:08:00,31.9,30.6,30.13,NNW,337,6.0,17.0,95,0.02,,,0.26,Weather View 32 v70,2013-11-06 02:08:00,
2013-11-05 20:13:00,31.9,30.6,30.13,NW,315,6.0,17.0,95,0.02,,,0.26,Weather View 32 v70,2013-11-06 02:13:00,
2013-11-05 20:18:00,31.9,30.6,30.12,NW,315,9.0,17.0,95,0.01,,,0.26,Weather View 32 v70,2013-11-06 02:18:00,
2013-11-05 20:23:00,31.9,30.6,30.12,NW,315,4.0,17.0,95,0.01,,,0.26,Weather View 32 v70,2013-11-06 02:23:00,
2013-11-05 20:28:00,31.8,30.5,30.12,NW,315,6.0,17.0,95,0.01,,,0.26,Weather View 32 v70,2013-11-06 02:28:00,
2013-11-05 20:33:00,31.9,30.6,30.12,NW,315,10.0,17.0,95,0.01,,,0.26,Weather View 32 v70,2013-11-06 02:33:00,
2013-11-05 20:38:00,32.2,30.9,30.13,NW,315,9.0,17.0,95,0.01,,,0.26,Weather View 32 v70,2013-11-06 02:38:00,
2013-11-05 20:43:00,32.2,30.9,30.13,NW,315,11.0,17.0,95,0.02,,,0.27,Weather View 32 v70,2013-11-06 02:43:00,
2013-11-05 20:48:00,32.3,31.0,30.14,NW,315,15.0,18.0,95,0.02,,,0.27,Weather View 32 v70,2013-11-06 02:48:00,
2013-11-05 20:53:00,32.3,31.0,30.13,NW,315,8.0,19.0,95,0.01,,,0.27,Weather View 32 v70,2013-11-06 02:53:00,
2013-11-05 20:58:00,31.9,30.6,30.13,NW,315,6.0,19.0,95,0.01,,,0.27,Weather View 32 v70,2013-11-06 02:58:00,
2013-11-05 21:03:00,31.9,30.6,30.14,NW,315,10.0,19.0,95,0.02,,,0.28,Weather View 32 v70,2013-11-06 03:03:00,
2013-11-05 21:08:00,31.9,30.6,30.15,NW,315,12.0,19.0,95,0.02,,,0.28,Weather View 32 v70,2013-11-06 03:08:00,
2013-11-05 21:13:00,31.9,30.6,30.16,NW,315,7.0,19.0,95,0.02,,,0.28,Weather View 32 v70,2013-11-06 03:13:00,
2013-11-05 21:18:00,31.8,30.5,30.15,NW,315,11.0,19.0,95,0.02,,,0.28,Weather View 32 v70,2013-11-06 03:18:00,
2013-11-05 21:23:00,31.7,30.4,30.15,WNW,292,7.0,19.0,95,0.02,,,0.28,Weather View 32 v70,2013-11-06 03:23:00,
2013-11-05 21:28:00,31.8,30.5,30.16,NW,315,10.0,19.0,95,0.02,,,0.28,Weather View 32 v70,2013-11-06 03:28:00,
2013-11-05 21:33:00,31.8,30.5,30.15,NW,315,10.0,19.0,95,0.02,,,0.28,Weather View 32 v70,2013-11-06 03:33:00,
2013-11-05 21:38:00,31.7,30.4,30.16,NW,315,12.0,19.0,95,0.02,,,0.28,Weather View 32 v70,2013-11-06 03:38:00,
2013-11-05 21:43:00,31.7,30.4,30.16,NW,315,9.0,22.0,95,0.02,,,0.29,Weather View 32 v70,2013-11-06 03:43:00,
2013-11-05 21:48:00,31.7,30.4,30.16,NW,315,9.0,22.0,95,0.02,,,0.29,Weather View 32 v70,2013-11-06 03:48:00,
2013-11-05 21:53:00,31.7,30.4,30.16,NW,315,12.0,22.0,95,0.02,,,0.29,Weather View 32 v70,2013-11-06 03:53:00,
2013-11-05 21:58:00,31.7,30.4,30.16,NW,315,11.0,22.0,95,0.02,,,0.29,Weather View 32 v70,2013-11-06 03:58:00,
2013-11-05 22:03:00,31.7,30.4,30.16,NW,315,9.0,22.0,95,0.01,,,0.29,Weather View 32 v70,2013-11-06 04:03:00,
2013-11-05 22:09:00,31.6,30.3,30.16,NW,315,4.0,22.0,95,0.01,,,0.29,Weather View 32 v70,2013-11-06 04:09:00,
2013-11-05 22:14:00,31.6,30.3,30.16,NW,315,14.0,22.0,95,0.01,,,0.29,Weather View 32 v70,2013-11-06 04:14:00,
2013-11-05 22:19:00,31.8,30.5,30.16,NW,315,10.0,22.0,95,0.01,,,0.29,Weather View 32 v70,2013-11-06 04:19:00,
2013-11-05 22:24:00,31.8,30.5,30.16,NW,315,6.0,22.0,95,0.01,,,0.29,Weather View 32 v70,2013-11-06 04:24:00,
2013-11-05 22:29:00,31.9,30.6,30.16,NW,315,9.0,22.0,95,0.01,,,0.29,Weather View 32 v70,2013-11-06 04:29:00,
2013-11-05 22:34:00,31.9,30.6,30.16,NW,315,16.0,22.0,95,0.01,,,0.29,Weather View 32 v70,2013-11-06 04:34:00,
2013-11-05 22:39:00,31.8,30.5,30.16,NW,315,12.0,22.0,95,0.01,,,0.29,Weather View 32 v70,2013-11-06 04:39:00,
2013-11-05 22:44:00,31.9,30.6,30.16,NW,315,10.0,19.0,95,0.00,,,0.29,Weather View 32 v70,2013-11-06 04:44:00,
2013-11-05 22:49:00,31.9,30.6,30.16,NW,315,11.0,16.0,95,0.00,,,0.29,Weather View 32 v70,2013-11-06 04:49:00,
2013-11-05 22:54:00,31.9,30.6,30.17,NNW,337,8.0,16.0,95,0.01,,,0.30,Weather View 32 v70,2013-11-06 04:54:00,
2013-11-05 22:59:00,31.9,30.6,30.17,NW,315,12.0,17.0,95,0.01,,,0.30,Weather View 32 v70,2013-11-06 04:59:00,
2013-11-05 23:01:00,31.9,30.6,30.17,NW,315,13.0,17.0,95,0.01,,,0.30,Weather View 32 v70,2013-11-06 05:01:00,
2013-11-05 23:02:00,31.9,30.6,30.17,NW,315,10.0,17.0,95,0.01,,,0.30,Weather View 32 v70,2013-11-06 05:02:00,
2013-11-05 23:03:00,32.0,30.7,30.17,NW,315,6.0,17.0,95,0.01,,,0.30,Weather View 32 v70,2013-11-06 05:03:00,
2013-11-05 23:08:00,32.1,30.8,30.17,NW,315,7.0,17.0,95,0.01,,,0.30,Weather View 32 v70,2013-11-06 05:08:00,
2013-11-05 23:13:00,32.4,31.1,30.18,WNW,292,13.0,17.0,95,0.01,,,0.30,Weather View 32 v70,2013-11-06 05:13:00,
2013-11-05 23:18:00,32.5,31.2,30.18,NW,315,19.0,19.0,95,0.01,,,0.30,Weather View 32 v70,2013-11-06 05:18:00,
2013-11-05 23:23:00,32.3,31.0,30.18,NW,315,12.0,21.0,95,0.01,,,0.30,Weather View 32 v70,2013-11-06 05:23:00,
2013-11-05 23:28:00,32.2,30.9,30.18,NW,315,16.0,21.0,95,0.01,,,0.30,Weather View 32 v70,2013-11-06 05:28:00,
2013-11-05 23:33:00,32.3,31.0,30.18,NW,315,13.0,21.0,95,0.01,,,0.30,Weather View 32 v70,2013-11-06 05:33:00,
2013-11-05 23:38:00,31.9,30.6,30.18,NW,315,11.0,21.0,95,0.02,,,0.31,Weather View 32 v70,2013-11-06 05:38:00,
2013-11-05 23:43:00,32.1,30.8,30.19,NW,315,14.0,21.0,95,0.02,,,0.31,Weather View 32 v70,2013-11-06 05:43:00,
2013-11-05 23:48:00,31.7,30.4,30.19,WNW,292,12.0,21.0,95,0.02,,,0.31,Weather View 32 v70,2013-11-06 05:48:00,
2013-11-05 23:53:00,31.7,30.4,30.19,WNW,292,7.0,21.0,95,0.01,,,0.31,Weather View 32 v70,2013-11-06 05:53:00,
2013-11-05 23:58:00,31.8,30.5,30.19,NW,315,13.0,21.0,95,0.01,,,0.31,Weather View 32 v70,2013-11-06 05:58:00,